Domov               UVHVVR             MKGP            O straneh              
ZDRAVSTVENO VARSTVO RASTLIN
  MREŽA AGROMET. POSTAJ
 ► PROGNOSTIČNA OBVESTILA
AGROMETEOROLOŠKI PODATKI -
ARSO
OBVLADOVANJE TVEGANJ ZARADI
NEUGODNIH VREMENSKIH RAZMER
  ► NARAVNE NESREČE
  ► SUŠA/MOČA
  ► NAMAKANJE
  ► ŽLED (gozdarstvo)
KARTOGRAFSKI PRIKAZI
SPLETNE POVEZAVE
PROJEKTI IN PUBLIKACIJE

AGROMETEOROLOŠKA MREŽA: VREMENSKE POSTAJE IN FENOLOŠKA OPAZOVANJA

Pregled podatkov za lokacijo Škofja vas, meteorološka postaja 49151

Pregled senzorjev na lokaciji

ID Ime Zadnja
vrednost
Datum
zadnje
spremembe
Tip
senzorja
3712 Temperatura 2 m ( °C) 23,7 °C 24.6.2017 22:00 50YA
3713 Relativna vlaga 2 m (% RH) 88,46 % RH 24.6.2017 22:00 50YA
3714 Omočenost lista (U) 2 U 24.6.2017 22:00 A730WET
3715 Sončno sevanje (W/m2) 0,49 W/m2 24.6.2017 22:00 Pyranometer SP-Lite
3716 Temperatura tal ( °C) 23,91 °C 24.6.2017 22:00 99TG411E
3717 Hitrost vetra (km/h) 0,05 km/h 24.6.2017 22:00 566.2S-176 (200km/h)
3718 Smer vetra (°) 66,44 ° 24.6.2017 22:00 566.2S-130
3719 Padavine 0.2 mm (mm) 0 mm 24.6.2017 22:00 Rain-O-Matic

Pregled podatkov zadnjih 24 ur

Zap.
št.
Datum in čas Škofja vas
Hitrost
vetra
Omočenost
lista
Padavine
0.2
mm
Relativna
vlaga
2
m
Smer
vetra
Sončno
sevanje
Temperatura
2
m
Temperatura
tal
0 24.6.2017 21:00 0,05 2 0 88,46 66,44 0,49 23,7 23,91
1 24.6.2017 20:30 0,05 1 0 84,52 17,72 0,7 24,66 23,94
2 24.6.2017 20:00 0,05 0 0 78,61 184,75 2,04 25,76 23,98
3 24.6.2017 19:30 0,05 0 0 68,76 20,42 6,65 27,62 24,09
4 24.6.2017 19:00 0,05 0 0 59,14 242,35 45,04 29,7 24,22
5 24.6.2017 18:30 0,05 0 0 58,39 208,94 86,67 29,98 24,3
6 24.6.2017 18:00 0,05 0 0 58,48 207,34 163,45 30,11 24,29
7 24.6.2017 17:30 0,05 0 0 59,44 230,01 86,61 29,61 24,17
8 24.6.2017 17:00 0,05 0 0 57,87 217,76 157,02 29,98 24,17
9 24.6.2017 16:30 0,05 0 0 59,83 41,92 49,01 29,02 23,92
10 24.6.2017 16:00 0,53 0 0 55,32 189,4 38,91 29,51 23,82
11 24.6.2017 15:30 8,17 0 0 55,66 183,52 59,27 30,29 23,78
12 24.6.2017 15:00 1,89 0 0 50,53 139,53 230,93 31,96 23,97
13 24.6.2017 14:30 3,58 0 0 49,7 126,99 482,34 32,4 23,97
14 24.6.2017 14:00 2,13 0 0 49,48 64,58 491,86 32,05 23,8
15 24.6.2017 13:30 0,05 0 0 51,44 122,49 506,69 31,59 23,5
16 24.6.2017 13:00 0,05 0 0 52,25 233,55 531,81 30,93 23,35
17 24.6.2017 12:30 0,05 0 0 50,91 44,87 534,4 30,26 23,29
18 24.6.2017 12:00 0,05 0 0 50,94 127,62 541,76 29,84 23,17
19 24.6.2017 11:30 0,05 0 0 52,33 148 531,47 28,88 23,07
20 24.6.2017 11:00 0,05 0 0 51,46 121,19 510,96 28,59 22,99
21 24.6.2017 10:30 0,05 0 0 52,5 136,27 483,65 28,03 22,93
22 24.6.2017 10:00 0,05 0 0 55,78 200,05 449,71 27,23 22,85
23 24.6.2017 09:30 0,05 0 0 56,65 141,99 412,76 26,59 22,78
24 24.6.2017 09:00 0,05 0 0 59,64 152,04 360,48 25,93 22,78
25 24.6.2017 08:30 0,05 0 0 64,82 113,95 328,65 24,66 22,72
26 24.6.2017 08:00 0,05 0 0 67,34 78,27 283,48 24,12 22,64
27 24.6.2017 07:30 0,05 0 0 71,41 188,69 231,08 23,48 22,57
28 24.6.2017 07:00 0,05 0 0 77,89 32,42 181,25 22,55 22,51
29 24.6.2017 06:30 0,05 10 0 84,16 72,35 131,23 20,85 22,43
30 24.6.2017 06:00 0,05 10 0 89,3 304,25 89,11 18,9 22,28
31 24.6.2017 05:30 0,05 10 0 94,42 58,99 48,83 17,14 22,26
32 24.6.2017 05:00 0,05 10 0 97,32 72,88 17,7 15,96 22,27
33 24.6.2017 04:30 0,05 10 0 97,86 30,36 4,91 15,68 22,32
34 24.6.2017 04:00 0,05 10 0 97,16 79,56 0,79 15,74 22,4
35 24.6.2017 03:30 0,05 10 0 96,25 34,17 0,52 16,31 22,47
36 24.6.2017 03:00 0,05 10 0 96,47 326,56 0,55 16,58 22,58
37 24.6.2017 02:30 0,05 10 0 96,2 47,99 0,55 16,79 22,67
38 24.6.2017 02:00 0,05 10 0 96,31 30,23 0,58 16,72 22,74
39 24.6.2017 01:30 0,05 10 0 95,19 28,91 0,58 17,02 22,8
40 24.6.2017 01:00 0,05 10 0 96,44 10,96 0,55 17,24 22,89
41 24.6.2017 00:30 0,05 10 0 96,05 33,84 17,17 22,94
42 24.6.2017 00:00 0,05 9 0 95,09 45,95 17,38 23,02
43 23.6.2017 23:30 0,05 3 0 93,67 54,06 17,9 23,11
44 23.6.2017 23:00 0,05 1 0 91,76 45,37 18,63 23,19
© 2011 Ministrstvo za kmetijstvo, gozdarstvo in prehrano. Vse pravice pridržane.